Time;durP1;ratioP1;P1;durP2;ratioP2;P2;SDS_P1;SDS_P2;PMS_P1;PMS_P2;Temp;Humidity;BMP_temperature;BMP_pressure;BME280_temperature;BME280_humidity;BME280_pressure;Samples;Min_cycle;Max_cycle;Signal;HPM_P1;HPM_P2
2023/08/01 00:04:28;;;;;;;10.40;10.10;;;;;;;-141.02;100.00;42770.66;5113429;28;20242;-64
2023/08/01 00:06:57;;;;;;;10.63;10.32;;;;;;;-141.02;100.00;42772.59;5112807;28;20235;-59
2023/08/01 00:09:24;;;;;;;10.50;10.20;;;;;;;-141.02;100.00;42743.78;5112806;28;20201;-59
2023/08/01 00:11:51;;;;;;;10.90;10.60;;;;;;;-141.02;100.00;42340.69;5112625;28;20683;-66
2023/08/01 00:14:20;;;;;;;11.27;10.98;;;;;;;-141.02;100.00;42156.41;5112659;28;20225;-59
2023/08/01 00:16:47;;;;;;;11.60;11.30;;;;;;;-141.02;100.00;42102.66;5112748;28;20205;-61
2023/08/01 00:19:18;;;;;;;11.13;10.82;;;;;;;-141.02;100.00;42288.84;5112526;28;20193;-59
2023/08/01 00:42:56;;;;;;;;;;;;;;;;;;;;;
2023/08/01 00:45:31;;;;;;;10.25;9.95;;;;;;;-141.02;100.00;42640.13;5112288;28;20204;-66
2023/08/01 00:47:58;;;;;;;10.52;10.23;;;;;;;-141.02;100.00;42595.97;5112239;28;20573;-64
2023/08/01 00:50:25;;;;;;;10.65;10.35;;;;;;;-141.02;100.00;42469.28;5112470;28;20296;-64
2023/08/01 00:53:46;;;;;;;10.93;10.63;;;;;;;-141.02;100.00;42137.22;5112498;28;20201;-59
2023/08/01 00:57:00;;;;;;;10.98;10.68;;;;;;;-141.02;100.00;42141.06;5112109;28;20278;-60
2023/08/01 01:02:11;;;;;;;10.27;9.98;;;;;;;-141.02;100.00;42438.56;5110021;28;20204;-61
2023/08/01 01:04:38;;;;;;;10.07;9.77;;;;;;;-141.02;100.00;42883.94;5112334;28;20197;-59
2023/08/01 01:07:15;;;;;;;10.00;9.70;;;;;;;-141.02;100.00;43425.34;5112413;28;20197;-63
2023/08/01 01:09:51;;;;;;;9.88;9.57;;;;;;;-141.02;100.00;43795.94;5112357;28;20551;-63
2023/08/01 01:12:31;;;;;;;9.55;9.25;;;;;;;-141.02;100.00;43673.06;5112088;28;20742;-65
2023/08/01 01:14:59;;;;;;;10.00;9.70;;;;;;;-141.02;100.00;43517.50;5112223;28;20683;-59
2023/08/01 01:17:26;;;;;;;10.10;9.80;;;;;;;-141.02;100.00;43408.06;5110869;28;20197;-65
2023/08/01 01:19:54;;;;;;;10.27;9.98;;;;;;;-141.02;100.00;42960.72;5112006;28;20284;-59
2023/08/01 01:22:22;;;;;;;10.20;9.90;;;;;;;-141.02;100.00;42993.34;5112319;28;20231;-62
2023/08/01 01:24:50;;;;;;;10.55;10.25;;;;;;;-141.02;100.00;43146.94;5111972;28;20236;-65
2023/08/01 01:27:18;;;;;;;9.98;9.68;;;;;;;-141.02;100.00;43411.91;5112229;28;20228;-63
2023/08/01 01:29:45;;;;;;;9.82;9.52;;;;;;;-141.02;100.00;43377.34;5111966;28;20205;-63
2023/08/01 01:32:40;;;;;;;10.27;9.98;;;;;;;-141.02;100.00;43342.78;5111891;28;20189;-63
2023/08/01 01:35:08;;;;;;;10.07;9.77;;;;;;;-141.02;100.00;43623.13;5113169;28;20278;-59
2023/08/01 01:37:36;;;;;;;10.18;9.88;;;;;;;-141.02;100.00;43788.28;5115650;28;20655;-65
2023/08/01 01:40:19;;;;;;;10.20;9.90;;;;;;;-141.02;100.00;44245.31;5115929;28;20645;-65
2023/08/01 01:42:46;;;;;;;9.85;9.55;;;;;;;-141.02;100.00;44775.44;5111306;28;20774;-60
2023/08/01 01:45:13;;;;;;;9.57;9.27;;;;;;;-141.02;100.00;44965.63;5115532;28;20627;-61
2023/08/01 01:47:40;;;;;;;9.80;9.50;;;;;;;-141.02;100.00;44800.41;5115431;28;20284;-62
2023/08/01 01:50:08;;;;;;;10.20;9.90;;;;;;;-141.02;100.00;44479.66;5115434;28;20283;-59
2023/08/01 01:52:36;;;;;;;10.00;9.70;;;;;;;-141.02;100.00;44032.16;5115744;28;20232;-59
2023/08/01 01:55:09;;;;;;;10.35;10.05;;;;;;;-141.02;100.00;43770.97;5115832;28;20226;-60
2023/08/01 01:57:37;;;;;;;10.30;10.00;;;;;;;-141.02;100.00;43452.22;5115208;28;20702;-60
2023/08/01 02:00:04;;;;;;;10.15;9.85;;;;;;;-141.02;100.00;43834.34;5115738;28;20197;-59
2023/08/01 02:02:31;;;;;;;10.30;10.00;;;;;;;-141.02;100.00;44108.97;5115323;28;20280;-59
2023/08/01 02:04:58;;;;;;;9.85;9.55;;;;;;;-141.02;100.00;44130.09;5115369;28;20266;-60
2023/08/01 02:07:25;;;;;;;10.15;9.85;;;;;;;-141.02;100.00;44418.19;5114988;28;20199;-59
2023/08/01 02:10:15;;;;;;;9.95;9.65;;;;;;;-141.02;100.00;44836.91;5115090;28;20228;-59
2023/08/01 02:12:44;;;;;;;9.20;9.00;;;;;;;-141.02;100.00;45134.66;5115222;28;20614;-60
2023/08/01 02:15:27;;;;;;;8.90;8.70;;;;;;;-141.02;100.00;46081.88;5115244;28;20764;-58
2023/08/01 02:17:54;;;;;;;8.80;8.60;;;;;;;-141.02;100.00;47037.03;5115362;28;20279;-60
2023/08/01 02:20:21;;;;;;;8.50;8.30;;;;;;;-141.02;100.00;48027.09;5114845;28;20656;-62
2023/08/01 02:22:48;;;;;;;7.70;7.50;;;;;;;-141.02;100.00;49084.75;5114968;28;20232;-59
2023/08/01 02:25:16;;;;;;;7.80;7.60;;;;;;;-141.02;100.00;50294.72;5115114;28;20220;-61
2023/08/01 02:27:43;;;;;;;7.70;7.50;;;;;;;-141.02;100.00;51085.59;5114697;28;20280;-60
2023/08/01 02:30:18;;;;;;;8.00;7.80;;;;;;;-141.02;100.00;52167.31;5114727;28;20643;-59
2023/08/01 02:32:45;;;;;;;7.75;7.55;;;;;;;-141.02;100.00;53049.09;5114900;28;20228;-61
2023/08/01 02:35:12;;;;;;;7.93;7.72;;;;;;;-141.02;100.00;53773.19;5114422;28;20778;-63
2023/08/01 02:37:40;;;;;;;8.25;8.05;;;;;;;-141.02;100.00;55526.28;5114493;28;20289;-64
2023/08/01 02:40:41;;;;;;;8.05;7.85;;;;;;;-141.02;100.00;57746.88;5114442;28;20794;-62
2023/08/01 02:43:08;;;;;;;7.43;7.22;;;;;;;-141.02;100.00;60462.94;5114540;28;20311;-59
2023/08/01 02:45:35;;;;;;;7.05;6.85;;;;;;;-141.02;100.00;63675.59;5114733;28;20276;-61
2023/08/01 02:48:02;;;;;;;7.10;6.90;;;;;;;-141.02;100.00;66148.94;5113654;28;20195;-63
2023/08/01 02:50:35;;;;;;;7.35;7.15;;;;;;;-141.02;100.00;67881.38;5114508;28;20236;-62
2023/08/01 02:53:22;;;;;;;7.45;7.25;;;;;;;-141.02;100.00;70605.50;5114497;28;20193;-65
2023/08/01 02:55:51;;;;;;;7.60;7.40;;;;;;;-141.02;100.00;73083.88;5114593;28;20229;-64
2023/08/01 02:58:27;;;;;;;7.22;7.03;;;;;;;-141.02;100.00;75812.16;5114057;28;20193;-61
2023/08/01 03:00:54;;;;;;;6.70;6.50;;;;;;;-141.02;100.00;78294.28;5114353;28;20246;-65
2023/08/01 03:03:21;;;;;;;6.07;5.97;;;;;;;-141.02;100.00;80281.31;5114236;28;20220;-60
2023/08/01 03:05:48;;;;;;;6.68;6.47;;;;;;;-141.02;100.00;83761.31;5114493;28;20270;-58
2023/08/01 03:08:15;;;;;;;6.20;6.10;;;;;;;-141.02;100.00;86995.94;5113912;28;20193;-62
2023/08/01 03:10:42;;;;;;;6.13;6.03;;;;;;;-141.02;100.00;89486.16;5114856;28;20204;-59
2023/08/01 03:13:10;;;;;;;5.70;5.60;;;;;;;-141.02;100.00;91230.38;5113902;28;20224;-59
2023/08/01 03:15:38;;;;;;;5.90;5.80;;;;;;;-141.02;100.00;92227.47;5113946;28;20272;-62
2023/08/01 03:18:05;;;;;;;5.10;5.00;;;;;;;-141.02;100.00;93224.84;5114047;28;20189;-64
2023/08/01 03:20:32;;;;;;;5.20;5.10;;;;;;;-141.02;100.00;93723.63;5113958;28;20220;-61
2023/08/01 03:22:59;;;;;;;5.28;5.18;;;;;;;-141.02;100.00;93723.63;5113563;27;20734;-63
2023/08/01 03:25:26;;;;;;;5.70;5.60;;;;;;;-141.02;100.00;94222.50;5113672;28;20242;-61
2023/08/01 03:27:54;;;;;;;5.53;5.43;;;;;;;-141.02;100.00;94721.44;5113473;28;20199;-62
2023/08/01 03:30:22;;;;;;;5.18;5.07;;;;;;;-141.02;100.00;95470.00;5113807;28;20204;-59
2023/08/01 03:32:49;;;;;;;5.70;5.60;;;;;;;-141.02;100.00;96218.69;5113429;28;20287;-63
2023/08/01 03:35:17;;;;;;;5.50;5.40;;;;;;;-141.02;100.00;96717.94;5113346;28;20260;-59
2023/08/01 03:41:07;;;;;;;5.40;5.30;;;;;;;-141.02;100.00;96967.56;5113390;28;20635;-62
2023/08/01 03:43:34;;;;;;;5.07;4.97;;;;;;;-141.02;100.00;97716.59;5101187;28;20294;-60
2023/08/01 03:50:17;;;;;;;4.97;4.88;;;;;;;-141.02;100.00;98465.78;5113273;28;20233;-59
2023/08/01 03:52:46;;;;;;;5.72;5.63;;;;;;;-141.02;100.00;97217.22;5113166;28;20232;-59
2023/08/01 03:55:13;;;;;;;5.60;5.50;;;;;;;-141.02;100.00;93973.06;5113214;28;20227;-62
2023/08/01 03:57:40;;;;;;;7.20;7.00;;;;;;;-141.02;100.00;86249.22;5112934;27;20250;-64
2023/08/01 04:00:13;;;;;;;9.05;8.85;;;;;;;-141.02;100.00;79287.66;5112469;28;20735;-60
2023/08/01 04:02:52;;;;;;;10.02;9.73;;;;;;;-141.02;100.00;74819.81;5112880;28;20566;-62
2023/08/01 04:05:19;;;;;;;10.65;10.35;;;;;;;-141.02;100.00;71348.81;5112901;28;20197;-62
2023/08/01 04:07:48;;;;;;;10.98;10.68;;;;;;;-141.02;100.00;68128.91;5112923;28;20189;-62
2023/08/01 04:10:25;;;;;;;11.15;10.85;;;;;;;-141.02;100.00;65654.13;5112784;28;20228;-63
2023/08/01 04:12:52;;;;;;;11.90;11.50;;;;;;;-141.02;100.00;63675.59;5113340;28;20272;-62
2023/08/01 04:15:19;;;;;;;12.13;11.73;;;;;;;-141.02;100.00;62933.94;5112976;28;20217;-62
2023/08/01 04:17:46;;;;;;;12.43;12.02;;;;;;;-141.02;100.00;61204.03;5112670;28;20226;-60
2023/08/01 04:20:13;;;;;;;13.18;12.77;;;;;;;-141.02;100.00;57993.72;5112949;28;20193;-64
2023/08/01 04:22:40;;;;;;;13.73;13.23;;;;;;;-141.02;100.00;56998.81;5112564;28;20678;-66
2023/08/01 04:25:09;;;;;;;14.07;13.57;;;;;;;-141.02;100.00;54414.59;5112581;28;20677;-61
2023/08/01 04:27:36;;;;;;;14.27;13.77;;;;;;;-141.02;100.00;53576.75;5112543;28;20250;-63
2023/08/01 04:30:04;;;;;;;14.65;14.13;;;;;;;-141.02;100.00;52694.81;5112748;28;20272;-61
2023/08/01 04:32:31;;;;;;;14.85;14.25;;;;;;;-141.02;100.00;52454.16;5112795;28;20224;-66
2023/08/01 04:34:58;;;;;;;15.55;14.95;;;;;;;-141.02;100.00;51139.47;5112789;28;20203;-67
2023/08/01 04:37:25;;;;;;;16.50;15.80;;;;;;;-141.02;100.00;49750.28;5112431;28;20277;-64
2023/08/01 04:39:53;;;;;;;16.05;15.35;;;;;;;-141.02;99.10;49100.13;5112882;28;20193;-64
2023/08/01 04:42:21;;;;;;;16.02;15.32;;;;;;;-141.02;98.59;48838.56;5112659;28;20266;-63
2023/08/01 04:44:48;;;;;;;16.08;15.38;;;;;;;-141.02;98.70;48457.81;5112273;28;20260;-67
2023/08/01 04:47:15;;;;;;;15.60;15.00;;;;;;;-141.02;93.48;47984.78;5112658;28;20282;-63
2023/08/01 04:49:43;;;;;;;15.90;15.30;;;;;;;-141.02;89.14;47980.94;5112274;28;20193;-60
2023/08/01 04:52:13;;;;;;;16.45;15.75;;;;;;;-141.02;88.01;47508.00;5112432;28;20193;-61
2023/08/01 04:54:51;;;;;;;16.45;15.75;;;;;;;-141.02;88.66;47335.00;5112543;28;20203;-61
2023/08/01 04:58:00;;;;;;;16.83;16.13;;;;;;;-141.02;84.29;46700.69;5112349;28;20612;-61
2023/08/01 05:00:28;;;;;;;17.08;16.38;;;;;;;-141.02;83.03;46593.06;5112175;28;20197;-60
2023/08/01 05:02:55;;;;;;;17.15;16.45;;;;;;;-141.02;85.42;46266.34;5112488;28;20742;-61
2023/08/01 05:05:22;;;;;;;16.17;15.48;;;;;;;-141.02;89.09;46068.44;5112467;28;20574;-61
2023/08/01 05:07:49;;;;;;;16.65;15.95;;;;;;;-141.02;87.35;46145.28;5112233;28;20228;-61
2023/08/01 05:10:16;;;;;;;16.17;15.48;;;;;;;-141.02;89.85;45417.06;5113585;28;20197;-61
2023/08/01 05:12:43;;;;;;;15.20;14.60;;;;;;;-141.02;96.40;45613.03;5116151;28;20245;-60
2023/08/01 05:15:11;;;;;;;15.18;14.57;;;;;;;-141.02;93.88;45839.75;5116528;28;20221;-62
2023/08/01 05:17:39;;;;;;;14.93;14.32;;;;;;;-141.02;94.73;46362.44;5116235;28;20273;-63
2023/08/01 05:20:08;;;;;;;14.63;14.13;;;;;;;-141.02;97.52;45962.75;5116482;28;20193;-62
2023/08/01 05:22:35;;;;;;;12.90;12.50;;;;;;;-141.02;100.00;46097.25;5116326;28;20200;-60
2023/08/01 05:25:03;;;;;;;12.63;12.23;;;;;;;-141.02;100.00;46931.34;5116407;28;20193;-63
2023/08/01 05:27:30;;;;;;;12.80;12.40;;;;;;;-141.02;100.00;46470.06;5115958;28;20689;-60
2023/08/01 05:29:57;;;;;;;13.65;13.23;;;;;;;-141.02;100.00;46191.41;5116163;28;20598;-62
2023/08/01 05:32:24;;;;;;;13.15;12.75;;;;;;;-141.02;100.00;46339.38;5115886;28;20674;-66
2023/08/01 05:34:53;;;;;;;13.77;13.38;;;;;;;-141.02;100.00;46126.06;5116089;28;20563;-62
2023/08/01 05:37:20;;;;;;;14.20;13.70;;;;;;;-141.02;100.00;46131.84;5115950;28;20368;-63
2023/08/01 05:39:47;;;;;;;14.20;13.70;;;;;;;-141.02;99.94;45930.06;5115928;28;20193;-61
2023/08/01 05:42:14;;;;;;;14.40;13.90;;;;;;;-141.02;100.00;46093.41;5115551;28;20657;-62
2023/08/01 05:44:41;;;;;;;14.63;14.13;;;;;;;-141.02;98.49;45912.78;5115605;28;20328;-61
2023/08/01 05:47:08;;;;;;;15.10;14.50;;;;;;;-141.02;96.40;45726.41;5115538;28;20624;-62
2023/08/01 05:49:35;;;;;;;15.52;14.93;;;;;;;-141.02;95.31;46001.16;5115751;28;20201;-60
2023/08/01 05:52:04;;;;;;;15.88;15.27;;;;;;;-141.02;94.54;45964.66;5115460;28;20219;-61
2023/08/01 05:54:30;;;;;;;16.50;15.85;;;;;;;-141.02;93.85;45883.97;5115305;28;20280;-61
2023/08/01 05:56:58;;;;;;;16.70;16.00;;;;;;;-141.02;94.74;45947.38;5115605;28;20312;-61
2023/08/01 05:59:25;;;;;;;16.52;15.82;;;;;;;-141.02;91.39;45643.78;5115254;28;20235;-59
2023/08/01 06:01:51;;;;;;;17.15;16.35;;;;;;;-141.02;91.81;45388.25;5115279;28;20235;-59
2023/08/01 06:04:19;;;;;;;16.92;16.23;;;;;;;-141.02;91.99;45474.72;5115377;28;20207;-61
2023/08/01 06:06:46;;;;;;;16.70;16.00;;;;;;;-141.02;91.30;45467.03;5115358;28;20193;-58
2023/08/01 06:09:14;;;;;;;16.33;15.63;;;;;;;-141.02;91.10;45605.34;5115464;28;20193;-58
2023/08/01 06:11:41;;;;;;;16.88;16.17;;;;;;;-141.02;90.16;45474.72;5115260;28;20242;-58
2023/08/01 06:14:08;;;;;;;17.08;16.38;;;;;;;-141.02;91.91;45345.97;5115422;28;20624;-59
2023/08/01 06:16:35;;;;;;;16.85;16.15;;;;;;;-141.02;92.23;45632.25;5115150;28;20277;-62
2023/08/01 06:19:02;;;;;;;17.15;16.45;;;;;;;-141.02;90.83;45438.19;5114926;28;20197;-58
2023/08/01 06:21:30;;;;;;;16.98;16.27;;;;;;;-141.02;91.10;45722.56;5114208;28;20619;-64
2023/08/01 06:23:57;;;;;;;16.98;16.27;;;;;;;-141.02;89.51;46008.84;5114884;28;20189;-64
2023/08/01 06:26:25;;;;;;;17.30;16.60;;;;;;;-141.02;91.36;45686.06;5114822;28;20200;-63
2023/08/01 06:28:53;;;;;;;17.00;16.30;;;;;;;-141.02;89.59;45616.88;5115007;28;20247;-63
2023/08/01 06:31:20;;;;;;;16.65;15.95;;;;;;;-141.02;92.04;45930.06;5114840;28;20252;-62
2023/08/01 06:33:47;;;;;;;17.17;16.48;;;;;;;-141.02;89.76;45751.38;5114966;28;20229;-60
2023/08/01 06:36:16;;;;;;;17.38;16.67;;;;;;;-141.02;88.73;45782.13;5114783;28;20312;-59
2023/08/01 06:38:43;;;;;;;17.63;16.92;;;;;;;-141.02;88.97;45755.22;5114817;28;20215;-58
2023/08/01 06:41:10;;;;;;;17.75;16.95;;;;;;;-141.02;87.92;45760.97;5114468;28;20233;-60
2023/08/01 06:43:38;;;;;;;17.90;17.10;;;;;;;-141.02;87.39;45643.78;5114561;28;20224;-58
2023/08/01 06:46:06;;;;;;;17.90;17.10;;;;;;;-141.02;87.38;45684.13;5114327;28;20212;-58
2023/08/01 06:48:34;;;;;;;17.95;17.15;;;;;;;-141.02;86.47;45728.31;5114606;28;20239;-59
2023/08/01 06:51:02;;;;;;;18.13;17.33;;;;;;;-141.02;85.41;45643.78;5114290;28;20193;-58
2023/08/01 06:53:29;;;;;;;18.05;17.15;;;;;;;-141.02;85.01;46122.22;5114593;28;20592;-60
2023/08/01 06:55:56;;;;;;;18.08;17.17;;;;;;;-141.02;82.25;46054.97;5114424;28;20246;-59
2023/08/01 06:58:23;;;;;;;18.15;17.25;;;;;;;-141.02;82.05;46062.66;5114412;28;20197;-58
2023/08/01 07:00:52;;;;;;;17.90;17.10;;;;;;;-141.02;82.46;45943.53;5114447;28;20195;-60
2023/08/01 07:03:19;;;;;;;16.77;16.08;;;;;;;-141.02;82.76;45591.91;5114033;28;20230;-58
2023/08/01 07:05:46;;;;;;;17.80;17.00;;;;;;;-141.02;81.50;45603.44;5114018;28;20225;-59
2023/08/01 07:08:13;;;;;;;17.80;17.00;;;;;;;-141.02;82.20;45803.25;5114266;28;20205;-58
2023/08/01 07:10:40;;;;;;;17.98;17.17;;;;;;;-141.02;80.17;46268.28;5113931;28;20197;-59
2023/08/01 07:13:07;;;;;;;18.20;17.40;;;;;;;-141.02;78.60;46054.97;5114375;28;20222;-62
2023/08/01 07:15:34;;;;;;;18.05;17.25;;;;;;;-141.02;78.15;45697.56;5114263;28;20189;-59
2023/08/01 07:18:03;;;;;;;17.98;17.17;;;;;;;-141.02;77.53;45693.75;5114068;28;20260;-59
2023/08/01 07:20:30;;;;;;;18.67;17.77;;;;;;;-141.02;76.86;46095.31;5114058;28;20197;-62
2023/08/01 07:22:57;;;;;;;18.70;17.80;;;;;;;-141.02;76.45;46691.06;5113938;28;20224;-59
2023/08/01 07:25:25;;;;;;;18.58;17.67;;;;;;;-141.02;74.81;45947.38;5113914;28;20230;-61
2023/08/01 07:27:52;;;;;;;18.67;17.85;;;;;;;-141.02;75.44;46177.97;5113480;28;20212;-60
2023/08/01 07:30:19;;;;;;;18.35;17.45;;;;;;;-141.02;73.81;45978.13;5113760;28;20655;-63
2023/08/01 07:32:47;;;;;;;18.55;17.65;;;;;;;-141.02;73.89;46570.00;5114204;28;20231;-60
2023/08/01 07:35:15;;;;;;;18.98;18.08;;;;;;;-141.02;71.66;46270.19;5113996;28;20193;-60
2023/08/01 07:37:42;;;;;;;18.80;17.90;;;;;;;-141.02;70.49;45968.50;5113619;28;20229;-58
2023/08/01 07:40:11;;;;;;;19.00;18.10;;;;;;;-141.02;69.84;45666.84;5113261;28;20195;-60
2023/08/01 07:42:38;;;;;;;19.38;18.38;;;;;;;-141.02;69.12;45985.81;5113420;28;20678;-61
2023/08/01 07:45:07;;;;;;;19.48;18.48;;;;;;;-141.02;68.98;45737.94;5113159;28;20306;-60
2023/08/01 07:47:34;;;;;;;19.35;18.35;;;;;;;-141.02;67.20;46224.06;5113500;28;20189;-60
2023/08/01 07:50:01;;;;;;;19.20;18.20;;;;;;;-141.02;66.14;46258.66;5113207;28;20228;-60
2023/08/01 07:52:29;;;;;;;18.85;17.92;;;;;;;-141.02;67.61;45912.78;5113341;28;20560;-61
2023/08/01 07:54:58;;;;;;;18.65;17.75;;;;;;;-141.02;66.00;46156.81;5113045;28;20193;-61
2023/08/01 07:57:25;;;;;;;19.15;18.15;;;;;;;-141.02;63.78;45947.38;5113054;28;20241;-62
2023/08/01 07:59:52;;;;;;;19.25;18.25;;;;;;;-141.02;64.68;45524.66;5113315;28;20671;-61
2023/08/01 08:02:19;;;;;;;19.05;18.05;;;;;;;-141.02;63.67;45803.25;5112883;28;20239;-64
2023/08/01 08:04:46;;;;;;;19.25;18.25;;;;;;;-141.02;62.17;45405.53;5113396;28;20189;-62
2023/08/01 08:07:13;;;;;;;18.73;17.73;;;;;;;-141.02;63.55;45434.34;5113165;28;20285;-59
2023/08/01 08:09:41;;;;;;;18.92;17.92;;;;;;;-141.02;63.29;45449.72;5112696;28;20232;-59
2023/08/01 08:12:08;;;;;;;19.30;18.30;;;;;;;-141.02;62.53;46037.69;5112777;28;20645;-60
2023/08/01 08:14:36;;;;;;;19.60;18.60;;;;;;;-141.02;60.14;45639.94;5112632;28;20553;-59
2023/08/01 08:17:03;;;;;;;19.73;18.73;;;;;;;-141.02;61.36;45457.41;5113224;28;20243;-59
2023/08/01 08:19:30;;;;;;;19.50;18.50;;;;;;;-141.02;59.85;45009.78;5112688;28;20618;-64
2023/08/01 08:21:57;;;;;;;19.77;18.77;;;;;;;-141.02;60.65;45413.22;5112829;28;20710;-60
2023/08/01 08:24:24;;;;;;;19.20;18.20;;;;;;;-141.02;59.24;45198.06;5113138;28;20193;-63
2023/08/01 08:26:52;;;;;;;19.05;18.10;;;;;;;-141.02;59.54;45501.59;5112497;28;20198;-61
2023/08/01 08:29:19;;;;;;;19.70;18.70;;;;;;;-141.02;60.93;44218.44;5112844;28;20273;-60
2023/08/01 08:31:46;;;;;;;19.42;18.42;;;;;;;-141.02;61.11;45025.16;5112643;28;20763;-65
2023/08/01 08:34:13;;;;;;;19.50;18.50;;;;;;;-141.02;58.76;45286.44;5112986;28;20197;-59
2023/08/01 08:36:40;;;;;;;19.65;18.65;;;;;;;-141.02;58.05;44646.75;5113026;28;20189;-61
2023/08/01 08:39:08;;;;;;;19.42;18.42;;;;;;;-141.02;58.39;44326.00;5112638;28;20278;-58
2023/08/01 08:41:39;;;;;;;19.45;18.45;;;;;;;-141.02;57.44;44239.56;5112750;28;20620;-62
2023/08/01 08:44:09;;;;;;;19.48;18.48;;;;;;;-141.02;58.94;44437.38;5112807;28;20260;-58
2023/08/01 08:46:42;;;;;;;19.08;18.08;;;;;;;-141.02;58.62;44537.25;5119283;28;20195;-59
2023/08/01 08:49:09;;;;;;;19.38;18.38;;;;;;;-141.02;59.13;44256.84;5119467;28;20204;-66
2023/08/01 08:51:38;;;;;;;19.13;18.13;;;;;;;-141.02;59.07;44606.41;5119747;28;20201;-62
2023/08/01 08:54:06;;;;;;;19.17;18.17;;;;;;;-141.02;58.10;44788.88;5119437;27;20257;-64
2023/08/01 08:56:35;;;;;;;19.20;18.20;;;;;;;-141.02;58.40;43984.16;5119308;27;20663;-59
2023/08/01 08:59:02;;;;;;;19.17;18.17;;;;;;;-141.02;60.21;44349.03;5119388;28;20228;-59
2023/08/01 09:01:34;;;;;;;18.75;17.75;;;;;;;-141.02;57.72;44233.81;5118979;28;20288;-61
2023/08/01 09:04:01;;;;;;;18.88;17.88;;;;;;;-141.02;56.32;44283.75;5119021;28;20715;-63
2023/08/01 09:06:31;;;;;;;18.98;17.98;;;;;;;-141.02;56.35;44552.63;5119279;28;20280;-60
2023/08/01 09:09:04;;;;;;;18.55;17.65;;;;;;;-141.02;56.17;44554.56;5119064;27;20232;-64
2023/08/01 09:11:39;;;;;;;18.90;17.90;;;;;;;-141.02;54.91;44014.88;5119215;28;20237;-62
2023/08/01 09:14:06;;;;;;;18.83;17.83;;;;;;;-141.02;54.13;43999.50;5118923;28;20185;-61
2023/08/01 09:16:36;;;;;;;18.90;17.90;;;;;;;-141.02;54.57;43980.31;5119099;27;20193;-60
2023/08/01 09:19:03;;;;;;;19.38;18.27;;;;;;;-141.02;55.46;43842.03;5118923;27;20220;-61
2023/08/01 09:21:34;;;;;;;18.70;17.70;;;;;;;-141.02;55.24;43713.38;5119140;28;20204;-62
2023/08/01 09:24:10;;;;;;;19.13;18.02;;;;;;;-141.02;54.79;43650.00;5119164;27;20182;-59
2023/08/01 09:26:37;;;;;;;18.58;17.58;;;;;;;-141.02;54.85;44229.97;5119055;28;20212;-59
2023/08/01 09:29:04;;;;;;;18.67;17.67;;;;;;;-141.02;54.35;44166.59;5118758;28;20228;-62
2023/08/01 09:31:33;;;;;;;19.48;18.38;;;;;;;-141.02;54.15;43865.09;5118776;28;20197;-58
2023/08/01 09:34:05;;;;;;;18.92;17.92;;;;;;;-141.02;53.44;43615.44;5118917;28;20193;-61
2023/08/01 09:36:32;;;;;;;19.58;18.48;;;;;;;-141.02;54.33;43843.97;5119063;28;20216;-59
2023/08/01 09:39:00;;;;;;;19.05;18.05;;;;;;;-141.02;53.95;43619.28;5118651;28;20224;-60
2023/08/01 09:41:27;;;;;;;19.15;18.15;;;;;;;-141.02;53.70;43961.09;5118672;28;20655;-61
2023/08/01 09:43:54;;;;;;;18.83;17.83;;;;;;;-141.02;52.64;44210.75;5118656;28;20232;-62
2023/08/01 09:46:21;;;;;;;19.45;18.35;;;;;;;-141.02;50.06;43891.97;5118665;27;20189;-61
2023/08/01 09:48:48;;;;;;;18.88;17.88;;;;;;;-141.02;51.25;43646.16;5118956;27;20610;-61
2023/08/01 09:51:18;;;;;;;18.90;17.90;;;;;;;-141.02;51.84;43523.28;5119721;28;20204;-65
2023/08/01 09:53:50;;;;;;;18.98;17.98;;;;;;;-141.02;51.20;43490.63;5118600;28;20185;-62
2023/08/01 09:56:21;;;;;;;18.67;17.67;;;;;;;-141.02;51.54;43419.59;5117643;27;20196;-58
2023/08/01 09:58:49;;;;;;;18.95;17.95;;;;;;;-141.02;50.54;43600.09;5115306;28;20273;-62
2023/08/01 10:01:17;;;;;;;18.95;17.95;;;;;;;-141.02;50.88;43715.28;5115543;28;20193;-60
2023/08/01 10:03:47;;;;;;;19.48;18.38;;;;;;;-141.02;50.09;43703.78;5115217;28;20199;-61
2023/08/01 10:06:20;;;;;;;19.25;18.25;;;;;;;-141.02;50.02;43799.78;5115466;28;20181;-59
2023/08/01 10:08:47;;;;;;;20.08;19.08;;;;;;;-141.02;50.57;43530.97;5115495;28;20193;-62
2023/08/01 10:11:16;;;;;;;18.90;17.90;;;;;;;-141.02;50.80;43602.00;5115103;28;20228;-64
2023/08/01 10:13:44;;;;;;;19.17;18.08;;;;;;;-141.02;51.76;43849.72;5115267;28;20283;-64
2023/08/01 10:16:11;;;;;;;19.13;18.02;;;;;;;-141.02;51.46;43530.97;5115246;28;20231;-59
2023/08/01 10:18:39;;;;;;;18.70;17.67;;;;;;;-141.02;51.63;43565.53;5115113;28;20256;-59
2023/08/01 10:21:06;;;;;;;18.70;17.70;;;;;;;-141.02;51.43;43659.59;5115243;28;20202;-61
2023/08/01 10:23:36;;;;;;;18.58;17.58;;;;;;;-141.02;51.98;43486.78;5115102;28;20205;-60
2023/08/01 10:26:06;;;;;;;18.75;17.75;;;;;;;-141.02;52.56;43753.69;5114780;28;20239;-61
2023/08/01 10:28:34;;;;;;;18.35;17.35;;;;;;;-141.02;52.34;43776.75;5114982;28;20225;-61
2023/08/01 10:31:11;;;;;;;18.52;17.52;;;;;;;-141.02;51.75;43694.19;5114672;28;20292;-61
2023/08/01 10:33:39;;;;;;;18.45;17.45;;;;;;;-141.02;51.08;43772.91;5115009;28;20250;-60
2023/08/01 10:36:17;;;;;;;17.98;17.08;;;;;;;-141.02;51.47;44037.91;5114883;28;20222;-61
2023/08/01 10:38:52;;;;;;;18.40;17.40;;;;;;;-141.02;50.22;43872.75;5114490;28;20270;-60
2023/08/01 10:41:26;;;;;;;18.58;17.58;;;;;;;-141.02;50.61;44155.06;5114817;28;20618;-60
2023/08/01 10:44:05;;;;;;;18.27;17.27;;;;;;;-141.02;50.12;43805.56;5114691;28;20237;-65
2023/08/01 10:46:46;;;;;;;18.55;17.55;;;;;;;-141.02;51.54;44060.97;5114784;28;20608;-62
2023/08/01 10:49:13;;;;;;;19.02;17.92;;;;;;;-141.02;51.15;43805.56;5115111;28;20189;-66
2023/08/01 10:51:40;;;;;;;18.90;17.80;;;;;;;-141.02;51.82;44064.81;5114405;28;20197;-67
2023/08/01 10:54:19;;;;;;;18.63;17.63;;;;;;;-141.02;51.10;43888.13;5114489;28;20225;-66
2023/08/01 10:56:47;;;;;;;18.55;17.55;;;;;;;-141.02;50.58;43803.63;5114210;28;20655;-62
2023/08/01 10:59:14;;;;;;;18.75;17.70;;;;;;;-141.02;50.52;43867.00;5114034;28;20315;-68
2023/08/01 11:01:49;;;;;;;19.08;17.98;;;;;;;-141.02;50.67;43784.44;5114462;28;20196;-60
2023/08/01 11:04:17;;;;;;;18.63;17.63;;;;;;;-141.02;50.13;43611.59;5114529;28;20201;-64
2023/08/01 11:06:49;;;;;;;18.58;17.58;;;;;;;-141.02;49.60;43822.84;5114005;28;20693;-58
2023/08/01 11:09:19;;;;;;;18.85;17.77;;;;;;;-141.02;51.46;43484.88;5114691;28;20242;-66
2023/08/01 11:11:49;;;;;;;18.90;17.90;;;;;;;-141.02;51.02;43519.44;5114544;28;20190;-62
2023/08/01 11:14:17;;;;;;;19.17;18.08;;;;;;;-141.02;51.22;43561.69;5113808;28;20628;-65
2023/08/01 11:16:44;;;;;;;18.92;17.83;;;;;;;-141.02;50.55;43757.53;5113989;28;20716;-65
2023/08/01 11:19:22;;;;;;;18.52;17.52;;;;;;;-141.02;51.65;43640.41;5113759;28;20888;-62
2023/08/01 11:21:49;;;;;;;18.65;17.65;;;;;;;-141.02;51.69;43628.88;5113942;28;20599;-59
2023/08/01 11:24:19;;;;;;;18.95;17.85;;;;;;;-141.02;50.59;43742.19;5113664;28;20292;-63
2023/08/01 11:26:48;;;;;;;18.35;17.35;;;;;;;-141.02;50.13;43995.66;5113505;28;20197;-65
2023/08/01 11:29:16;;;;;;;18.65;17.55;;;;;;;-141.02;48.78;44034.06;5113905;28;20622;-67
2023/08/01 11:31:53;;;;;;;18.98;17.88;;;;;;;-141.02;50.24;43600.09;5113781;28;20278;-64
2023/08/01 11:34:21;;;;;;;18.77;17.67;;;;;;;-141.02;51.04;43577.03;5113770;28;20185;-66
2023/08/01 11:36:48;;;;;;;18.60;17.60;;;;;;;-141.02;49.35;43709.53;5113617;28;20207;-67
2023/08/01 11:39:16;;;;;;;18.20;17.20;;;;;;;-141.02;49.84;43705.69;5113515;28;20231;-68
2023/08/01 11:41:45;;;;;;;18.92;17.83;;;;;;;-141.02;50.36;43567.44;5113583;28;20244;-64
2023/08/01 11:44:13;;;;;;;19.02;17.92;;;;;;;-141.02;50.10;43678.81;5113174;27;20233;-66
2023/08/01 11:46:41;;;;;;;19.08;17.98;;;;;;;-141.02;49.11;43765.22;5113547;28;20197;-65
2023/08/01 11:49:09;;;;;;;19.33;18.23;;;;;;;-141.02;49.58;43830.50;5113122;27;20205;-67